Rechercher aéroport 
image banner adimage banner adimage banner ad
image banner ad

2CA0 - Ash Mountain

Situé à Three Rivers, United States

ICAO - 2CA0, IATA -

Données fournies par Airmate  

Information générale

Coordonnées: N36°29'13" W118°50'24"
Élévation : 1690 feet MSL.
Variation magnétique : 15° East
Voir autres Aéroports à California

Données opérationnelles

Special qualification required
Heure actuelle UTC:
Heure actuelle locale:
Météo à : KVIS - Visalia Muni ( 53 km )
METAR: KVIS 260856Z AUTO 03003KT 10SM CLR 18/13 A2993 RMK AO2 SLP139 T01830128 55000
TAF: KVIS 260854Z 2609/2706 00000KT P6SM SKC
Voir NOTAMs / SUP AIP / TFR affectant cet aéroport [VIEW]
Fréquences de communication: [VIEW]

Pistes:

Coordonnées de l'aéroport

Adresse: Three Rivers United States

Vue satellite de 2CA0